createdAt,value
2018-03-02T00:02:01.723Z,99.90
2018-03-02T00:04:28.412Z,99.90
2018-03-02T00:06:55.097Z,99.90
2018-03-02T00:09:21.497Z,99.90
2018-03-02T00:11:48.007Z,99.90
2018-03-02T00:14:14.434Z,99.90
2018-03-02T00:16:41.109Z,99.90
2018-03-02T00:19:08.295Z,99.90
2018-03-02T00:21:34.977Z,99.90
2018-03-02T00:24:01.400Z,99.90
2018-03-02T00:26:27.967Z,99.90
2018-03-02T00:28:54.531Z,99.90
2018-03-02T00:31:21.340Z,99.90
2018-03-02T00:33:47.810Z,99.90
2018-03-02T00:36:14.253Z,99.90
2018-03-02T00:38:40.658Z,99.90
2018-03-02T00:41:07.134Z,99.90
2018-03-02T00:43:33.564Z,99.90
2018-03-02T00:46:00.056Z,99.90
2018-03-02T00:48:26.591Z,99.90
2018-03-02T00:50:53.058Z,99.90
2018-03-02T00:53:19.524Z,99.90
2018-03-02T00:55:45.990Z,99.90
2018-03-02T00:58:12.415Z,99.90
2018-03-02T01:00:38.883Z,99.90
2018-03-02T01:03:05.317Z,99.90
2018-03-02T01:05:32.291Z,99.90
2018-03-02T01:07:58.859Z,99.90
2018-03-02T01:10:25.281Z,99.90
2018-03-02T01:12:51.702Z,99.90
2018-03-02T01:15:18.096Z,99.90
2018-03-02T01:17:44.547Z,99.90
2018-03-02T01:20:12.050Z,99.90
2018-03-02T01:22:38.534Z,99.90
2018-03-02T01:25:06.290Z,99.90
2018-03-02T01:27:32.914Z,99.90
2018-03-02T01:29:59.313Z,99.90
2018-03-02T01:32:25.829Z,99.90
2018-03-02T01:34:52.223Z,99.90
2018-03-02T01:37:19.378Z,99.90
2018-03-02T01:39:45.803Z,99.90
2018-03-02T01:42:12.201Z,99.90
2018-03-02T01:44:38.645Z,99.90
2018-03-02T01:47:05.032Z,99.90
2018-03-02T01:49:31.432Z,99.90
2018-03-02T01:51:57.880Z,99.90
2018-03-02T01:54:24.304Z,99.90
2018-03-02T01:56:50.715Z,99.90
2018-03-02T01:59:17.884Z,99.90
2018-03-02T02:01:44.302Z,99.90
2018-03-02T02:04:10.742Z,99.90
2018-03-02T02:06:37.190Z,99.90
2018-03-02T02:09:04.594Z,99.90
2018-03-02T02:11:30.989Z,99.90
2018-03-02T02:13:58.194Z,99.90
2018-03-02T02:16:25.341Z,99.90
2018-03-02T02:18:52.514Z,99.90
2018-03-02T02:21:18.939Z,99.90
2018-03-02T02:23:46.230Z,99.90
2018-03-02T02:26:12.681Z,99.90
2018-03-02T02:28:39.084Z,99.90
2018-03-02T02:31:05.487Z,99.90
2018-03-02T02:33:31.944Z,99.90
2018-03-02T02:35:58.326Z,99.90
2018-03-02T02:38:24.761Z,99.90
2018-03-02T02:40:51.154Z,99.90
2018-03-02T02:43:17.675Z,99.90
2018-03-02T02:45:44.117Z,99.90
2018-03-02T02:48:10.518Z,99.90
2018-03-02T02:50:37.717Z,99.90
2018-03-02T02:53:04.118Z,99.90
2018-03-02T02:55:31.298Z,99.90
2018-03-02T02:57:57.674Z,99.90
2018-03-02T03:00:24.151Z,99.90
2018-03-02T03:02:50.688Z,99.90
2018-03-02T03:05:17.071Z,99.90
2018-03-02T03:07:44.640Z,99.90
2018-03-02T03:10:11.974Z,99.90
2018-03-02T03:12:39.165Z,99.90
2018-03-02T03:15:06.184Z,99.90
2018-03-02T03:17:33.374Z,99.90
2018-03-02T03:20:00.056Z,99.90
2018-03-02T03:22:26.460Z,99.90
2018-03-02T03:24:52.886Z,99.90
2018-03-02T03:27:19.281Z,99.90
2018-03-02T03:29:45.706Z,99.90
2018-03-02T03:32:12.858Z,99.90
2018-03-02T03:34:39.407Z,99.90
2018-03-02T03:37:05.910Z,99.90
2018-03-02T03:39:32.310Z,99.90
2018-03-02T03:41:59.445Z,99.90
2018-03-02T03:44:25.833Z,99.90
2018-03-02T03:46:52.289Z,99.90
2018-03-02T03:49:18.725Z,99.90
2018-03-02T03:51:45.173Z,99.90
2018-03-02T03:54:11.573Z,99.90
2018-03-02T03:56:38.810Z,99.90
2018-03-02T03:59:05.212Z,99.90
2018-03-02T04:01:31.660Z,99.90
2018-03-02T04:03:58.074Z,99.90
2018-03-02T04:06:24.566Z,99.90
2018-03-02T04:08:50.968Z,99.90
2018-03-02T04:11:17.467Z,99.90
2018-03-02T04:13:43.856Z,99.90
2018-03-02T04:16:10.299Z,99.90
2018-03-02T04:18:36.855Z,99.90
2018-03-02T04:21:03.326Z,99.90
2018-03-02T04:23:29.737Z,99.90
2018-03-02T04:25:56.190Z,99.90
2018-03-02T04:28:22.692Z,99.90
2018-03-02T04:30:49.841Z,99.90
2018-03-02T04:33:16.331Z,99.90
2018-03-02T04:35:42.803Z,99.90
2018-03-02T04:38:09.268Z,99.90
2018-03-02T04:40:35.665Z,99.90
2018-03-02T04:43:02.063Z,99.90
2018-03-02T04:45:28.459Z,99.90
2018-03-02T04:47:54.872Z,99.90
2018-03-02T04:50:21.364Z,99.90
2018-03-02T04:52:48.590Z,99.90
2018-03-02T04:55:15.035Z,99.90
2018-03-02T04:57:41.472Z,99.90
2018-03-02T05:00:08.481Z,99.90
2018-03-02T05:02:34.906Z,99.90
2018-03-02T05:05:01.391Z,99.90
2018-03-02T05:07:27.836Z,99.90
2018-03-02T05:09:54.245Z,99.90
2018-03-02T05:12:20.705Z,99.90
2018-03-02T05:14:47.616Z,99.90
2018-03-02T05:17:14.813Z,99.90
2018-03-02T05:19:41.267Z,99.90
2018-03-02T05:22:07.778Z,99.90
2018-03-02T05:24:34.241Z,99.90
2018-03-02T05:27:00.658Z,99.90
2018-03-02T05:29:27.147Z,99.90
2018-03-02T05:31:53.652Z,99.90
2018-03-02T05:34:20.348Z,99.90
2018-03-02T05:36:46.758Z,99.90
2018-03-02T05:39:13.200Z,99.90
2018-03-02T05:41:39.878Z,99.90
2018-03-02T05:44:06.370Z,99.90
2018-03-02T05:46:33.561Z,99.90
2018-03-02T05:49:00.091Z,99.90
2018-03-02T05:51:26.699Z,99.90
2018-03-02T05:53:53.245Z,99.90
2018-03-02T05:56:19.903Z,99.90
2018-03-02T05:58:47.239Z,99.90
2018-03-02T06:01:14.625Z,99.90
2018-03-02T06:03:41.828Z,99.90
2018-03-02T06:06:08.501Z,99.90
2018-03-02T06:08:35.627Z,99.90
2018-03-02T06:11:02.231Z,99.90
2018-03-02T06:13:51.474Z,99.90
2018-03-02T06:16:18.164Z,99.90
2018-03-02T06:18:44.714Z,99.90
2018-03-02T06:21:11.530Z,99.90
2018-03-02T06:23:39.306Z,99.90
2018-03-02T06:26:05.912Z,99.90
2018-03-02T06:28:32.617Z,99.90
2018-03-02T06:30:59.203Z,99.90
2018-03-02T06:33:26.978Z,99.90
2018-03-02T06:35:53.517Z,99.90
2018-03-02T06:38:20.714Z,99.90
2018-03-02T06:40:47.132Z,99.90
2018-03-02T06:43:14.142Z,99.90
2018-03-02T06:45:40.871Z,99.90
2018-03-02T06:48:08.237Z,99.90
2018-03-02T06:50:34.785Z,99.90
2018-03-02T06:53:01.624Z,99.90
2018-03-02T06:55:28.914Z,99.90
2018-03-02T06:57:55.467Z,99.90
2018-03-02T07:00:22.023Z,99.90
2018-03-02T07:02:48.539Z,99.90
2018-03-02T07:05:15.104Z,99.90
2018-03-02T07:07:41.588Z,99.90
2018-03-02T07:10:08.675Z,99.90
2018-03-02T07:12:35.161Z,99.90
2018-03-02T07:15:01.730Z,99.90
2018-03-02T07:17:28.231Z,99.90
2018-03-02T07:19:55.824Z,99.90
2018-03-02T07:22:23.161Z,99.90
2018-03-02T07:24:50.446Z,99.90
2018-03-02T07:27:17.148Z,99.90
2018-03-02T07:29:43.832Z,99.90
2018-03-02T07:32:10.408Z,99.90
2018-03-02T07:34:38.796Z,99.90
2018-03-02T07:37:05.329Z,99.90
2018-03-02T07:39:32.210Z,99.90
2018-03-02T07:41:59.349Z,99.90
2018-03-02T07:44:25.842Z,99.90
2018-03-02T07:46:52.722Z,99.90
2018-03-02T07:49:19.996Z,99.90
2018-03-02T07:51:46.547Z,99.90
2018-03-02T07:54:13.819Z,99.90
2018-03-02T07:56:40.408Z,99.90
2018-03-02T07:59:08.004Z,99.90
2018-03-02T08:01:34.607Z,99.90
2018-03-02T08:04:01.225Z,99.90
2018-03-02T08:06:28.530Z,99.90
2018-03-02T08:08:55.056Z,99.90
2018-03-02T08:11:22.239Z,99.90
2018-03-02T08:13:48.775Z,99.90
2018-03-02T08:16:15.266Z,99.90
2018-03-02T08:18:42.003Z,99.90
2018-03-02T08:21:08.934Z,99.90
2018-03-02T08:23:35.432Z,99.90
2018-03-02T08:26:02.662Z,99.90
2018-03-02T08:28:29.998Z,99.90
2018-03-02T08:30:56.630Z,99.90
2018-03-02T08:33:23.336Z,99.80
2018-03-02T08:35:49.994Z,96.60
2018-03-02T08:38:17.222Z,97.40
2018-03-02T08:40:43.762Z,97.60
2018-03-02T08:43:10.303Z,96.10
2018-03-02T08:45:36.871Z,94.70
2018-03-02T08:48:03.454Z,94.80
2018-03-02T08:50:30.733Z,95.30
2018-03-02T08:52:58.007Z,93.80
2018-03-02T08:55:24.622Z,93.70
2018-03-02T08:57:51.931Z,92.60
2018-03-02T09:00:19.166Z,91.60
2018-03-02T09:02:47.153Z,91.10
2018-03-02T09:05:13.729Z,91.00
2018-03-02T09:07:40.232Z,90.90
2018-03-02T09:10:08.079Z,86.40
2018-03-02T09:12:35.764Z,87.00
2018-03-02T09:15:02.506Z,87.00
2018-03-02T09:17:29.671Z,84.00
2018-03-02T09:19:56.426Z,80.80
2018-03-02T09:22:23.250Z,78.30
2018-03-02T09:24:49.806Z,76.20
2018-03-02T09:27:16.403Z,80.90
2018-03-02T09:29:43.687Z,77.60
2018-03-02T09:32:10.948Z,78.60
2018-03-02T09:34:37.684Z,78.60
2018-03-02T09:37:04.301Z,73.80
2018-03-02T09:39:30.913Z,70.40
2018-03-02T09:41:58.169Z,71.20
2018-03-02T09:44:24.681Z,71.10
2018-03-02T09:46:52.874Z,71.20
2018-03-02T09:49:20.352Z,71.90
2018-03-02T09:51:47.639Z,68.40
2018-03-02T09:54:14.181Z,68.40
2018-03-02T09:56:40.751Z,67.30
2018-03-02T09:59:07.378Z,67.50
2018-03-02T10:01:33.913Z,66.40
2018-03-02T10:04:00.399Z,66.50
2018-03-02T10:06:27.693Z,66.20
2018-03-02T10:08:54.252Z,66.10
2018-03-02T10:11:20.762Z,64.30
2018-03-02T10:13:47.265Z,62.50
2018-03-02T10:16:13.968Z,66.10
2018-03-02T10:18:40.600Z,65.30
2018-03-02T10:21:07.231Z,60.00
2018-03-02T10:23:33.821Z,59.20
2018-03-02T10:26:00.368Z,64.20
2018-03-02T10:28:26.959Z,60.70
2018-03-02T10:30:53.569Z,63.40
2018-03-02T10:33:21.083Z,63.60
2018-03-02T10:35:47.736Z,61.40
2018-03-02T10:38:14.188Z,60.30
2018-03-02T10:40:40.943Z,57.90
2018-03-02T10:43:07.449Z,60.00
2018-03-02T10:45:34.076Z,56.90
2018-03-02T10:48:00.586Z,58.10
2018-03-02T10:50:27.101Z,56.70
2018-03-02T10:52:53.644Z,57.20
2018-03-02T10:55:20.248Z,59.00
2018-03-02T10:57:46.791Z,57.90
2018-03-02T11:00:14.223Z,53.00
2018-03-02T11:02:46.954Z,53.00
2018-03-02T11:05:13.523Z,54.90
2018-03-02T11:07:40.232Z,54.60
2018-03-02T11:10:07.500Z,53.60
2018-03-02T11:12:34.826Z,51.90
2018-03-02T11:15:01.362Z,51.90
2018-03-02T11:17:27.920Z,51.20
2018-03-02T11:19:54.442Z,48.80
2018-03-02T11:22:21.068Z,49.50
2018-03-02T11:24:47.534Z,49.20
2018-03-02T11:27:13.994Z,49.00
2018-03-02T11:29:40.859Z,49.10
2018-03-02T11:32:07.484Z,48.60
2018-03-02T11:34:34.738Z,48.20
2018-03-02T11:37:01.231Z,48.20
2018-03-02T11:39:27.811Z,46.50
2018-03-02T11:41:55.198Z,46.70
2018-03-02T11:44:22.444Z,46.30
2018-03-02T11:46:49.747Z,45.60
2018-03-02T11:49:17.028Z,44.70
2018-03-02T11:51:43.568Z,44.80
2018-03-02T11:54:10.127Z,43.30
2018-03-02T11:56:36.641Z,43.00
2018-03-02T11:59:03.227Z,43.70
2018-03-02T12:01:29.887Z,44.00
2018-03-02T12:03:57.438Z,44.90
2018-03-02T12:06:24.018Z,44.30
2018-03-02T12:08:50.638Z,42.90
2018-03-02T12:11:17.138Z,41.50
2018-03-02T12:13:44.633Z,42.10
2018-03-02T12:16:11.187Z,42.70
2018-03-02T12:18:37.815Z,41.50
2018-03-02T12:21:05.115Z,43.00
2018-03-02T12:23:31.645Z,42.60
2018-03-02T12:25:59.067Z,42.70
2018-03-02T12:28:26.490Z,42.70
2018-03-02T12:30:53.743Z,42.70
2018-03-02T12:33:20.880Z,41.50
2018-03-02T12:35:48.545Z,41.60
2018-03-02T12:38:15.087Z,41.60
2018-03-02T12:40:41.739Z,41.90
2018-03-02T12:43:08.174Z,43.00
2018-03-02T12:45:35.574Z,42.40
2018-03-02T12:48:02.802Z,42.20
2018-03-02T12:50:29.421Z,42.30
2018-03-02T12:52:56.063Z,42.40
2018-03-02T12:55:23.719Z,42.50
2018-03-02T12:57:51.435Z,41.60
2018-03-02T13:00:18.047Z,41.40
2018-03-02T13:02:44.878Z,41.60
2018-03-02T13:05:12.126Z,42.10
2018-03-02T13:07:38.602Z,42.10
2018-03-02T13:10:06.574Z,43.40
2018-03-02T13:12:34.551Z,43.80
2018-03-02T13:15:01.231Z,43.80
2018-03-02T13:17:27.867Z,43.50
2018-03-02T13:19:54.397Z,42.80
2018-03-02T13:22:33.313Z,42.40
2018-03-02T13:24:59.783Z,43.70
2018-03-02T13:27:38.559Z,42.80
2018-03-02T13:30:06.591Z,44.10
2018-03-02T13:32:33.158Z,44.00
2018-03-02T13:35:08.810Z,43.70
2018-03-02T13:37:35.430Z,43.80
2018-03-02T13:40:14.117Z,44.30
2018-03-02T13:42:41.374Z,46.20
2018-03-02T13:45:08.547Z,46.30
2018-03-02T13:50:35.629Z,45.30
2018-03-02T13:53:02.867Z,45.50
2018-03-02T13:55:30.439Z,45.20
2018-03-02T13:58:01.937Z,45.20
2018-03-02T14:00:28.360Z,44.70
2018-03-02T14:03:08.212Z,44.10
2018-03-02T14:05:36.244Z,43.60
2018-03-02T14:08:02.809Z,43.70
2018-03-02T14:10:29.534Z,43.10
2018-03-02T14:12:56.099Z,43.80
2018-03-02T14:15:23.327Z,42.70
2018-03-02T14:17:49.967Z,42.70
2018-03-02T14:20:17.264Z,41.80
2018-03-02T14:22:44.605Z,41.80
2018-03-02T14:25:11.463Z,41.50
2018-03-02T14:27:38.692Z,41.60
2018-03-02T14:30:05.621Z,41.70
2018-03-02T14:32:33.399Z,42.00
2018-03-02T14:35:02.433Z,41.80
2018-03-02T14:37:28.939Z,40.80
2018-03-02T14:39:56.163Z,41.40
2018-03-02T14:42:23.437Z,41.20
2018-03-02T14:44:49.989Z,41.20
2018-03-02T14:47:16.466Z,41.20
2018-03-02T14:49:42.938Z,41.20
2018-03-02T14:52:09.435Z,41.70
2018-03-02T14:54:36.041Z,41.80
2018-03-02T14:57:02.630Z,41.90
2018-03-02T14:59:33.132Z,41.90
2018-03-02T15:01:59.668Z,41.90
2018-03-02T15:04:26.215Z,42.50
2018-03-02T15:06:52.995Z,42.20
2018-03-02T15:09:26.393Z,42.10
2018-03-02T15:11:53.174Z,42.30
2018-03-02T15:14:19.947Z,42.50
2018-03-02T15:16:47.299Z,42.10
2018-03-02T15:19:13.959Z,41.50
2018-03-02T15:21:42.239Z,42.10
2018-03-02T15:24:10.534Z,42.90
2018-03-02T15:26:38.709Z,42.90
2018-03-02T15:29:06.736Z,42.00
2018-03-02T15:31:33.342Z,42.00
2018-03-02T15:34:00.703Z,41.70
2018-03-02T15:36:28.183Z,41.30
2018-03-02T15:38:54.769Z,41.30
2018-03-02T15:41:21.261Z,41.90
2018-03-02T15:43:48.689Z,42.80
2018-03-02T15:46:15.338Z,42.60
2018-03-02T15:48:42.906Z,42.90
2018-03-02T15:51:09.557Z,42.90
2018-03-02T15:53:36.147Z,43.40
2018-03-02T15:56:02.830Z,43.70
2018-03-02T15:58:30.096Z,44.50
2018-03-02T16:00:56.582Z,44.50
2018-03-02T16:03:24.718Z,44.10
2018-03-02T16:05:51.428Z,44.10
2018-03-02T16:08:19.195Z,45.30
2018-03-02T16:10:46.588Z,45.40
2018-03-02T16:13:13.152Z,45.70
2018-03-02T16:15:39.733Z,45.00
2018-03-02T16:18:07.421Z,46.00
2018-03-02T16:20:35.005Z,45.90
2018-03-02T16:23:01.600Z,45.80
2018-03-02T16:25:28.703Z,45.90
2018-03-02T16:27:56.763Z,46.90
2018-03-02T16:30:24.712Z,46.80
2018-03-02T16:32:51.270Z,46.70
2018-03-02T16:35:18.583Z,47.90
2018-03-02T16:37:45.479Z,47.80
2018-03-02T16:40:12.632Z,48.20
2018-03-02T16:42:39.173Z,48.90
2018-03-02T16:45:07.186Z,49.50
2018-03-02T16:47:34.798Z,50.30
2018-03-02T16:50:01.286Z,50.20
2018-03-02T16:52:28.925Z,50.00
2018-03-02T16:54:55.573Z,50.40
2018-03-02T16:57:23.004Z,51.50
2018-03-02T16:59:50.303Z,52.10
2018-03-02T17:02:17.231Z,52.10
2018-03-02T17:04:44.517Z,52.00
2018-03-02T17:07:11.777Z,52.40
2018-03-02T17:09:38.286Z,52.30
2018-03-02T17:12:05.738Z,53.40
2018-03-02T17:14:32.322Z,55.30
2018-03-02T17:16:59.734Z,54.30
2018-03-02T17:19:26.259Z,54.30
2018-03-02T17:21:53.098Z,54.10
2018-03-02T17:24:20.685Z,53.30
2018-03-02T17:26:47.332Z,54.30
2018-03-02T17:29:14.267Z,53.60
2018-03-02T17:31:41.658Z,59.90
2018-03-02T17:34:08.173Z,59.90
2018-03-02T17:36:34.807Z,64.00
2018-03-02T17:39:02.684Z,90.00
2018-03-02T17:41:29.147Z,90.00
2018-03-02T17:43:56.604Z,93.30
2018-03-02T17:46:23.086Z,93.20
2018-03-02T17:48:49.991Z,95.80
2018-03-02T17:51:16.446Z,98.50
2018-03-02T17:53:42.903Z,99.70
2018-03-02T17:56:09.358Z,99.90
2018-03-02T17:58:36.541Z,99.90
2018-03-02T18:01:03.073Z,99.90
2018-03-02T18:03:29.532Z,99.90
2018-03-02T18:05:56.188Z,99.90
2018-03-02T18:08:23.407Z,99.90
2018-03-02T18:10:50.259Z,99.90
2018-03-02T18:13:16.693Z,99.90
2018-03-02T18:15:43.131Z,99.90
2018-03-02T18:18:09.611Z,99.90
2018-03-02T18:20:36.164Z,99.90
2018-03-02T18:23:02.687Z,99.90
2018-03-02T18:25:29.123Z,99.90
2018-03-02T18:27:55.659Z,99.90
2018-03-02T18:30:22.130Z,99.90
2018-03-02T18:32:49.327Z,99.90
2018-03-02T18:35:15.778Z,99.90
2018-03-02T18:37:42.281Z,99.90
2018-03-02T18:40:08.925Z,99.90
2018-03-02T18:42:35.419Z,99.90
2018-03-02T18:45:02.036Z,99.90
2018-03-02T18:47:29.203Z,99.90
2018-03-02T18:49:55.755Z,99.90
2018-03-02T18:52:22.202Z,99.90
2018-03-02T18:54:48.649Z,99.90
2018-03-02T18:57:15.831Z,99.90
2018-03-02T18:59:42.416Z,99.90
2018-03-02T19:02:10.476Z,99.90
2018-03-02T19:04:36.945Z,99.90
2018-03-02T19:07:03.428Z,99.90
2018-03-02T19:09:30.080Z,99.90
2018-03-02T19:11:56.549Z,99.90
2018-03-02T19:14:23.010Z,99.90
2018-03-02T19:16:49.443Z,99.90
2018-03-02T19:19:15.902Z,99.90
2018-03-02T19:21:43.167Z,99.90
2018-03-02T19:24:09.588Z,99.90
2018-03-02T19:26:36.063Z,99.90
2018-03-02T19:29:03.329Z,99.90
2018-03-02T19:31:30.547Z,99.90
2018-03-02T19:33:57.012Z,99.90
2018-03-02T19:36:23.584Z,99.90
2018-03-02T19:38:49.979Z,99.90
2018-03-02T19:41:16.721Z,99.90
2018-03-02T19:43:43.195Z,99.90
2018-03-02T19:46:09.948Z,99.90
2018-03-02T19:48:36.401Z,99.90
2018-03-02T19:51:02.969Z,99.90
2018-03-02T19:53:30.201Z,99.90
2018-03-02T19:55:57.420Z,99.90
2018-03-02T19:58:23.943Z,99.90
2018-03-02T20:00:50.387Z,99.90
2018-03-02T20:03:17.534Z,99.90
2018-03-02T20:05:44.714Z,99.90
2018-03-02T20:08:11.893Z,99.90
2018-03-02T20:10:38.407Z,99.90
2018-03-02T20:13:04.821Z,99.90
2018-03-02T20:15:31.310Z,99.90
2018-03-02T20:17:58.579Z,99.90
2018-03-02T20:20:25.805Z,99.90
2018-03-02T20:22:52.206Z,99.90
2018-03-02T20:25:18.634Z,99.90
2018-03-02T20:27:45.109Z,99.90
2018-03-02T20:30:12.104Z,99.90
2018-03-02T20:32:39.353Z,99.90
2018-03-02T20:35:06.123Z,99.90
2018-03-02T20:37:32.655Z,99.90
2018-03-02T20:39:59.150Z,99.90
2018-03-02T20:42:25.666Z,99.90
2018-03-02T20:44:52.878Z,99.90
2018-03-02T20:47:19.390Z,99.90
2018-03-02T20:49:45.787Z,99.90
2018-03-02T20:52:12.256Z,99.90
2018-03-02T20:54:38.845Z,99.90
2018-03-02T20:57:06.062Z,99.90
2018-03-02T20:59:32.504Z,99.90
2018-03-02T21:01:59.735Z,99.90
2018-03-02T21:04:26.157Z,99.90
2018-03-02T21:06:52.638Z,99.90
2018-03-02T21:09:19.079Z,99.90
2018-03-02T21:11:45.505Z,99.90
2018-03-02T21:14:12.688Z,99.90
2018-03-02T21:16:39.087Z,99.90
2018-03-02T21:19:06.256Z,99.90
2018-03-02T21:21:33.413Z,99.90
2018-03-02T21:23:59.848Z,99.90
2018-03-02T21:26:26.275Z,99.90
2018-03-02T21:28:52.684Z,99.90
2018-03-02T21:31:19.113Z,99.90
2018-03-02T21:33:45.607Z,99.90
2018-03-02T21:36:12.064Z,99.90
2018-03-02T21:38:38.502Z,99.90
2018-03-02T21:41:04.948Z,99.90
2018-03-02T21:43:32.209Z,99.90
2018-03-02T21:45:58.682Z,99.90
2018-03-02T21:48:25.898Z,99.90
2018-03-02T21:50:52.308Z,99.90
2018-03-02T21:53:18.730Z,99.90
2018-03-02T21:55:45.170Z,99.90
2018-03-02T21:58:12.419Z,99.90
2018-03-02T22:00:38.834Z,99.90
2018-03-02T22:03:05.265Z,99.90
2018-03-02T22:05:31.708Z,99.90
2018-03-02T22:07:58.110Z,99.90
2018-03-02T22:10:25.504Z,99.90
2018-03-02T22:12:52.660Z,99.90
2018-03-02T22:15:19.894Z,99.90
2018-03-02T22:17:47.096Z,99.90
2018-03-02T22:20:13.525Z,99.90
2018-03-02T22:22:39.944Z,99.90
2018-03-02T22:25:07.821Z,99.90
2018-03-02T22:27:34.991Z,99.90
2018-03-02T22:30:01.491Z,99.90
2018-03-02T22:32:27.933Z,99.90
2018-03-02T22:34:54.406Z,99.90
2018-03-02T22:37:20.827Z,99.90
2018-03-02T22:39:47.312Z,99.90
2018-03-02T22:42:13.719Z,99.90
2018-03-02T22:44:40.123Z,99.90
2018-03-02T22:47:06.642Z,99.90
2018-03-02T22:49:33.854Z,99.90
2018-03-02T22:52:00.989Z,99.90
2018-03-02T22:54:27.554Z,99.90
2018-03-02T22:56:53.975Z,99.90
2018-03-02T22:59:20.379Z,99.90
2018-03-02T23:01:46.823Z,99.90
2018-03-02T23:04:13.203Z,99.90
2018-03-02T23:06:39.751Z,99.90
2018-03-02T23:09:06.205Z,99.90
2018-03-02T23:11:32.736Z,99.90
2018-03-02T23:13:59.177Z,99.90
2018-03-02T23:16:25.573Z,99.90
2018-03-02T23:18:51.921Z,99.90
2018-03-02T23:21:18.366Z,99.90
2018-03-02T23:23:44.887Z,99.90
2018-03-02T23:26:11.306Z,99.90
2018-03-02T23:28:37.818Z,99.90
2018-03-02T23:31:04.251Z,99.90
2018-03-02T23:33:30.673Z,99.90
2018-03-02T23:35:57.847Z,99.90
2018-03-02T23:38:24.961Z,99.90
2018-03-02T23:40:51.400Z,99.90
2018-03-02T23:43:17.786Z,99.90
2018-03-02T23:45:44.958Z,99.90
2018-03-02T23:48:11.327Z,99.90
2018-03-02T23:50:37.751Z,99.90
2018-03-02T23:53:04.253Z,99.90
2018-03-02T23:55:30.650Z,99.90
2018-03-02T23:57:57.222Z,99.90
